Map

Track Data

SID SEASON NUMBER BASIN SUBBASIN NAME ISO_TIME NATURE LAT LON WMO_WIND WMO_PRES WMO_AGENCY TRACK_TYPE DIST2LAND LANDFALL IFLAG USA_AGENCY USA_ATCF_ID USA_LAT USA_LON USA_RECORD USA_STATUS USA_WIND USA_PRES USA_SSHS USA_R34_NE USA_R34_SE USA_R34_SW USA_R34_NW USA_R50_NE USA_R50_SE USA_R50_SW USA_R50_NW USA_R64_NE USA_R64_SE USA_R64_SW USA_R64_NW USA_POCI USA_ROCI USA_RMW USA_EYE TOKYO_LAT TOKYO_LON TOKYO_GRADE TOKYO_WIND TOKYO_PRES TOKYO_R50_DIR TOKYO_R50_LONG TOKYO_R50_SHORT TOKYO_R30_DIR TOKYO_R30_LONG TOKYO_R30_SHORT TOKYO_LAND CMA_LAT CMA_LON CMA_CAT CMA_WIND CMA_PRES HKO_LAT HKO_LON HKO_CAT HKO_WIND HKO_PRES NEWDELHI_LAT NEWDELHI_LON NEWDELHI_GRADE NEWDELHI_WIND NEWDELHI_PRES NEWDELHI_CI NEWDELHI_DP NEWDELHI_POCI REUNION_LAT REUNION_LON REUNION_TYPE REUNION_WIND REUNION_PRES REUNION_TNUM REUNION_CI REUNION_RMW REUNION_R34_NE REUNION_R34_SE REUNION_R34_SW REUNION_R34_NW REUNION_R50_NE REUNION_R50_SE REUNION_R50_SW REUNION_R50_NW REUNION_R64_NE REUNION_R64_SE REUNION_R64_SW REUNION_R64_NW BOM_LAT BOM_LON BOM_TYPE BOM_WIND BOM_PRES BOM_TNUM BOM_CI BOM_RMW BOM_R34_NE BOM_R34_SE BOM_R34_SW BOM_R34_NW BOM_R50_NE BOM_R50_SE BOM_R50_SW BOM_R50_NW BOM_R64_NE BOM_R64_SE BOM_R64_SW BOM_R64_NW BOM_ROCI BOM_POCI BOM_EYE BOM_POS_METHOD BOM_PRES_METHOD NADI_LAT NADI_LON NADI_CAT NADI_WIND NADI_PRES WELLINGTON_LAT WELLINGTON_LON WELLINGTON_WIND WELLINGTON_PRES DS824_LAT DS824_LON DS824_STAGE DS824_WIND DS824_PRES TD9636_LAT TD9636_LON TD9636_STAGE TD9636_WIND TD9636_PRES TD9635_LAT TD9635_LON TD9635_WIND TD9635_PRES TD9635_ROCI NEUMANN_LAT NEUMANN_LON NEUMANN_CLASS NEUMANN_WIND NEUMANN_PRES MLC_LAT MLC_LON MLC_CLASS MLC_WIND MLC_PRES USA_GUST BOM_GUST BOM_GUST_PER REUNION_GUST REUNION_GUST_PER USA_SEAHGT USA_SEARAD_NE USA_SEARAD_SE USA_SEARAD_SW USA_SEARAD_NW STORM_SPEED STORM_DIR
2020094S10160 2020 21 SP EA HAROLD 2020-04-02 18:00:00 NR -9.90000 159.500 PROVISIONAL 34 11 O_____________ tcvitals SP252020 -9.90000 159.500 35 1000 0 65 40 60 1004 190 35 23 100
2020094S10160 2020 21 SP MM HAROLD 2020-04-02 21:00:00 NR -10.1086 160.645 PROVISIONAL 22 0 P_____________ SP252020 -10.1086 160.645 37 1000 0 72 37 55 1004 195 30 21 104
2020094S10160 2020 21 SP MM HAROLD 2020-04-03 00:00:00 NR -10.4000 161.600 PROVISIONAL 0 0 O_____________ tcvitals SP252020 -10.4000 161.600 39 1000 0 80 75 35 50 1005 200 25 17 115
2020094S10160 2020 21 SP MM HAROLD 2020-04-03 03:00:00 NR -10.8395 162.228 PROVISIONAL 0 0 P_____________ SP252020 -10.8395 162.228 39 999 0 95 77 32 67 1005 200 25 14 136
2020094S10160 2020 21 SP MM HAROLD 2020-04-03 06:00:00 NR -11.4000 162.600 PROVISIONAL 74 74 O_____________ tcvitals SP252020 -11.4000 162.600 39 999 0 110 80 30 85 1005 200 25 14 155
2020094S10160 2020 21 SP MM HAROLD 2020-04-03 09:00:00 NR -12.0648 162.815 PROVISIONAL 155 155 P_____________ SP252020 -12.0648 162.815 46 994 0 107 75 42 90 1004 200 22 14 163
2020094S10160 2020 21 SP MM HAROLD 2020-04-03 12:00:00 NR -12.7000 163.000 PROVISIONAL 226 226 O_____________ tcvitals SP252020 -12.7000 163.000 54 990 0 105 70 55 95 1004 200 20 13 152
2020094S10160 2020 21 SP MM HAROLD 2020-04-03 15:00:00 NR -13.1677 163.415 PROVISIONAL 294 294 P_____________ SP252020 -13.1677 163.415 57 987 0 102 77 52 87 1003 202 22 11 136
2020094S10160 2020 21 SP MM HAROLD 2020-04-03 18:00:00 NR -13.5000 163.800 PROVISIONAL 325 306 O_____________ tcvitals SP252020 -13.5000 163.800 60 985 0 100 85 50 80 1002 205 25 7 140
2020094S10160 2020 21 SP MM HAROLD 2020-04-03 21:00:00 NR -13.7298 163.900 PROVISIONAL 306 287 P_____________ SP252020 -13.7298 163.900 74 975 1 110 92 60 90 1003 197 15 4 154
2020094S10160 2020 21 SP MM HAROLD 2020-04-04 00:00:00 NR -13.9000 164.000 PROVISIONAL 287 239 O_____________ tcvitals SP252020 -13.9000 164.000 89 966 2 120 100 70 100 1004 190 6 6 128
2020094S10160 2020 21 SP MM HAROLD 2020-04-04 03:00:00 NR -14.1077 164.392 PROVISIONAL 239 191 P_____________ SP252020 -14.1077 164.392 99 956 3 120 95 70 90 1003 182 5 9 117
2020094S10160 2020 21 SP MM HAROLD 2020-04-04 06:00:00 NR -14.3000 164.800 PROVISIONAL 191 167 O_____________ tcvitals SP252020 -14.3000 164.800 109 946 3 120 90 70 80 1002 175 5 7 122
2020094S10160 2020 21 SP MM HAROLD 2020-04-04 09:00:00 NR -14.4574 164.980 PROVISIONAL 164 152 P_____________ SP252020 -14.4574 164.980 112 943 3 102 102 90 77 1002 175 5 4 136
2020094S10160 2020 21 SP MM HAROLD 2020-04-04 12:00:00 NR -14.6000 165.100 PROVISIONAL 152 129 O_____________ tcvitals SP252020 -14.6000 165.100 115 941 4 85 115 110 75 1002 175 5 4 133
2020094S10160 2020 21 SP MM HAROLD 2020-04-04 15:00:00 NR -14.7350 165.293 PROVISIONAL 129 108 P_____________ SP252020 -14.7350 165.293 115 940 4 87 117 110 77 1002 172 5 5 128
2020094S10160 2020 21 SP MM HAROLD 2020-04-04 18:00:00 NR -14.9000 165.500 PROVISIONAL 108 88 O_____________ tcvitals SP252020 -14.9000 165.500 115 940 4 90 120 110 80 1002 170 5 6 133
2020094S10160 2020 21 SP MM HAROLD 2020-04-04 21:00:00 NR -15.1500 165.760 PROVISIONAL 85 75 P_____________ SP252020 -15.1500 165.760 110 945 3 87 115 102 75 1003 170 5 6 142
2020094S10160 2020 21 SP MM HAROLD 2020-04-05 00:00:00 NR -15.4000 165.900 PROVISIONAL 75 75 O_____________ tcvitals SP252020 -15.4000 165.900 105 950 3 85 110 95 70 1004 170 5 4 186
2020094S10160 2020 21 SP MM HAROLD 2020-04-05 03:00:00 NR -15.5951 165.723 PROVISIONAL 99 99 P_____________ SP252020 -15.5951 165.723 102 952 3 137 125 97 77 1004 170 5 5 232
2020094S10160 2020 21 SP MM HAROLD 2020-04-05 06:00:00 NR -15.7000 165.500 PROVISIONAL 122 122 O_____________ tcvitals SP252020 -15.7000 165.500 99 954 3 190 140 100 85 1004 170 5 3 246
2020094S10160 2020 21 SP MM HAROLD 2020-04-05 09:00:00 NR -15.6949 165.482 PROVISIONAL 122 109 P_____________ SP252020 -15.6949 165.482 109 945 3 137 107 92 90 1004 170 5 1 43
2020094S10160 2020 21 SP MM HAROLD 2020-04-05 12:00:00 NR -15.6000 165.600 PROVISIONAL 109 85 O_____________ tcvitals SP252020 -15.6000 165.600 119 936 4 85 75 85 95 1004 170 5 4 50
2020094S10160 2020 21 SP MM HAROLD 2020-04-05 15:00:00 NR -15.4275 165.813 PROVISIONAL 85 53 P_____________ SP252020 -15.4275 165.813 121 933 4 75 90 80 80 1003 167 5 6 58
2020094S10160 2020 21 SP MM HAROLD 2020-04-05 18:00:00 NR -15.3000 166.100 PROVISIONAL 53 32 O_____________ tcvitals SP252020 -15.3000 166.100 124 930 4 65 105 75 65 1003 165 5 5 82
2020094S10160 2020 21 SP MM HAROLD 2020-04-05 21:00:00 NR -15.3548 166.355 PROVISIONAL 21 0 P_____________ SP252020 -15.3548 166.355 119 935 4 77 117 85 75 1003 167 8 6 109
2020094S10160 2020 21 SP MM HAROLD 2020-04-06 00:00:00 NR -15.5000 166.700 PROVISIONAL 0 0 O_____________ tcvitals SP252020 -15.5000 166.700 115 940 4 90 130 95 85 1003 170 12 9 110
2020094S10160 2020 21 SP MM HAROLD 2020-04-06 03:00:00 NR -15.6502 167.220 PROVISIONAL 22 22 P_____________ SP252020 -15.6502 167.220 124 930 4 108 125 110 92 1002 175 12 11 106
2020094S10160 2020 21 SP MM HAROLD 2020-04-06 06:00:00 NR -15.8000 167.800 PROVISIONAL 48 48 O_____________ tcvitals SP252020 -15.8000 167.800 134 920 4 126 120 126 100 1002 180 12 11 103
2020094S10160 2020 21 SP MM HAROLD 2020-04-06 09:00:00 NR -15.8849 168.315 PROVISIONAL 69 69 P_____________ SP252020 -15.8849 168.315 139 916 5 145 102 118 117 1003 180 12 10 102
2020094S10160 2020 21 SP MM HAROLD 2020-04-06 12:00:00 NR -16.0000 168.800 PROVISIONAL 111 111 O_____________ tcvitals SP252020 -16.0000 168.800 144 912 5 165 85 110 135 1004 180 12 9 113
2020094S10160 2020 21 SP MM HAROLD 2020-04-06 15:00:00 NR -16.2495 169.212 PROVISIONAL 149 149 P_____________ SP252020 -16.2495 169.212 139 916 5 167 107 112 142 1003 192 8 10 120
2020094S10160 2020 21 SP MM HAROLD 2020-04-06 18:00:00 NR -16.5000 169.700 PROVISIONAL 202 202 O_____________ tcvitals SP252020 -16.5000 169.700 134 920 4 170 130 115 150 1002 205 5 12 107
2020094S10160 2020 21 SP MM HAROLD 2020-04-06 21:00:00 NR -16.6077 170.413 PROVISIONAL 277 277 P_____________ SP252020 -16.6077 170.413 124 931 4 182 132 107 135 1002 210 5 15 98
2020094S10160 2020 21 SP MM HAROLD 2020-04-07 00:00:00 NR -16.7000 171.200 PROVISIONAL 362 362 O_____________ tcvitals SP252020 -16.7000 171.200 115 942 4 195 135 100 120 1003 215 6 15 101
2020094S10160 2020 21 SP MM HAROLD 2020-04-07 03:00:00 NR -16.8922 171.907 PROVISIONAL 437 437 P_____________ SP252020 -16.8922 171.907 112 944 3 187 135 105 120 1002 202 8 14 107
2020094S10160 2020 21 SP MM HAROLD 2020-04-07 06:00:00 NR -17.1000 172.600 PROVISIONAL 498 433 O_____________ tcvitals SP252020 -17.1000 172.600 109 946 3 180 135 110 120 1001 190 10 13 104
2020094S10160 2020 21 SP MM HAROLD 2020-04-07 09:00:00 NR -17.2119 173.271 PROVISIONAL 423 345 P_____________ SP252020 -17.2119 173.271 109 947 3 177 132 107 117 1002 190 10 14 103
2020094S10160 2020 21 SP MM HAROLD 2020-04-07 12:00:00 NR -17.4000 174.000 PROVISIONAL 345 254 O_____________ tcvitals SP252020 -17.4000 174.000 109 948 3 175 130 105 115 1003 190 10 16 112
2020094S10160 2020 21 SP MM HAROLD 2020-04-07 15:00:00 NR -17.8274 174.862 PROVISIONAL 244 162 P_____________ SP252020 -17.8274 174.862 109 948 3 175 130 107 117 1003 197 10 19 118
2020094S10160 2020 21 SP MM HAROLD 2020-04-07 18:00:00 NR -18.3000 175.800 PROVISIONAL 151 84 O_____________ tcvitals SP252020 -18.3000 175.800 109 948 3 175 130 110 120 1003 205 10 19 114
2020094S10160 2020 21 SP MM HAROLD 2020-04-07 21:00:00 NR -18.6070 176.736 PROVISIONAL 84 67 P_____________ SP252020 -18.6070 176.736 114 944 4 212 140 105 125 1004 205 7 19 108
2020094S10160 2020 21 SP MM HAROLD 2020-04-08 00:00:00 NR -18.9000 177.700 PROVISIONAL 70 67 O_____________ tcvitals SP252020 -18.9000 177.700 119 940 4 250 150 100 130 1005 205 5 20 110
2020094S10160 2020 21 SP MM HAROLD 2020-04-08 03:00:00 NR -19.2768 178.678 PROVISIONAL 123 123 P_____________ SP252020 -19.2768 178.678 119 939 4 242 147 97 137 1004 205 9 21 113
2020094S10160 2020 21 SP MM HAROLD 2020-04-08 06:00:00 NR -19.7000 179.700 PROVISIONAL 207 207 O_____________ tcvitals SP252020 -19.7000 179.700 119 939 4 235 145 95 145 1003 205 14 21 113
2020094S10160 2020 21 SP MM HAROLD 2020-04-08 09:00:00 NR -20.1117 180.764 PROVISIONAL 314 314 P_____________ SP252020 -20.1117 -179.236 117 942 4 207 132 100 162 1003 205 14 23 114
2020094S10160 2020 21 SP MM HAROLD 2020-04-08 12:00:00 NR -20.6000 181.900 PROVISIONAL 436 436 O_____________ tcvitals SP252020 -20.6000 -178.100 115 945 4 180 120 105 180 1004 205 14 25 116
2020094S10160 2020 21 SP MM HAROLD 2020-04-08 15:00:00 NR -21.2277 183.157 PROVISIONAL 584 584 P_____________ SP252020 -21.2277 -176.843 112 946 3 182 147 122 180 1004 205 9 27 119
2020094S10160 2020 21 SP MM HAROLD 2020-04-08 18:00:00 NR -21.9000 184.400 PROVISIONAL 731 731 O_____________ tcvitals SP252020 -21.9000 -175.600 109 947 3 185 175 140 180 1004 205 5 25 121
2020094S10160 2020 21 SP MM HAROLD 2020-04-08 21:00:00 NR -22.4826 185.430 PROVISIONAL 854 854 P_____________ SP252020 -22.4826 -174.570 109 947 3 177 145 117 160 1004 205 5 23 122
2020094S10160 2020 21 SP MM HAROLD 2020-04-09 00:00:00 NR -23.1000 186.500 PROVISIONAL 985 985 O_____________ tcvitals SP252020 -23.1000 -173.500 109 948 3 170 115 95 140 1004 205 5 26 122
2020094S10160 2020 21 SP MM HAROLD 2020-04-09 03:00:00 NR -23.8422 187.833 PROVISIONAL 1118 1118 P_____________ SP252020 -23.8422 -172.167 101 953 3 180 125 110 145 1004 205 7 30 120
2020094S10160 2020 21 SP MM HAROLD 2020-04-09 06:00:00 NR -24.6000 189.300 PROVISIONAL 1218 1218 O_____________ tcvitals SP252020 -24.6000 -170.700 93 958 2 190 135 126 150 1004 205 10 30 117
2020094S10160 2020 21 SP MM HAROLD 2020-04-09 09:00:00 NR -25.2260 190.774 PROVISIONAL 1313 1313 P_____________ SP252020 -25.2260 -169.226 86 963 2 192 150 145 162 1004 205 17 30 116
2020094S10160 2020 21 SP MM HAROLD 2020-04-09 12:00:00 NR -25.9000 192.300 PROVISIONAL 1432 1432 O_____________ tcvitals SP252020 -25.9000 -167.700 80 968 1 195 165 165 175 1004 205 25 32 119
2020094S10160 2020 21 SP MM HAROLD 2020-04-09 15:00:00 NR -26.7922 193.914 PROVISIONAL 1586 1586 P_____________ SP252020 -26.7922 -166.086 75 969 1 210 172 162 185 1002 200 37 34 122
2020094S10160 2020 21 SP MM HAROLD 2020-04-09 18:00:00 NR -27.7000 195.500 PROVISIONAL 1747 1747 O_____________ tcvitals SP252020 -27.7000 -164.500 70 970 1 225 180 160 195 1001 195 50 32 122
2020094S10160 2020 21 SP MM HAROLD 2020-04-09 21:00:00 NR -28.4541 196.944 PROVISIONAL 1893 1893 P_____________ SP252020 -28.4541 -163.056 67 972 1 215 167 150 187 1001 195 50 28 120
2020094S10160 2020 21 SP MM HAROLD 2020-04-10 00:00:00 NR -29.1000 198.300 PROVISIONAL 2023 O_____________ tcvitals SP252020 -29.1000 -161.700 64 974 1 205 155 140 180 1001 195 50 27 119

Digital Typhoon Data and Search

About IBTrACS Database

This database is a web-friendly format of International Best Track Archive for Climate Stewardship (IBTrACS), a global best track data archive curated by NOAA dating back to 1842.

Updated: 2021-10-27